Time;durP1;ratioP1;P1;durP2;ratioP2;P2;SDS_P1;SDS_P2;PMS_P1;PMS_P2;Temp;Humidity;BMP_temperature;BMP_pressure;BME280_temperature;BME280_humidity;BME280_pressure;Samples;Min_cycle;Max_cycle;Signal;HPM_P1;HPM_P2
2022/07/15 00:00:39;;;;;;;60.13;50.08;;;25.70;50.80;;;;;;4996351;27;95614;-58
2022/07/15 00:03:05;;;;;;;60.53;50.22;;;25.70;50.90;;;;;;4977388;27;93546;-58
2022/07/15 00:05:31;;;;;;;59.70;49.97;;;25.70;51.00;;;;;;5000865;27;90852;-57
2022/07/15 00:08:03;;;;;;;60.38;50.25;;;25.70;51.10;;;;;;4971669;27;97794;-58
2022/07/15 00:10:29;;;;;;;60.95;50.13;;;25.70;51.10;;;;;;4996944;27;93616;-58
2022/07/15 00:12:57;;;;;;;59.95;49.95;;;25.60;51.10;;;;;;5000998;27;89963;-56
2022/07/15 00:15:27;;;;;;;60.55;50.10;;;25.60;51.20;;;;;;5004831;27;90406;-56
2022/07/15 00:17:54;;;;;;;60.35;50.08;;;25.60;51.40;;;;;;5004238;27;90832;-58
2022/07/15 00:20:21;;;;;;;61.13;50.13;;;25.60;51.40;;;;;;4979365;27;91740;-57
2022/07/15 00:22:47;;;;;;;60.45;50.25;;;25.60;51.40;;;;;;4989355;27;90699;-58
2022/07/15 00:25:14;;;;;;;60.22;50.15;;;25.60;51.50;;;;;;4967881;27;90045;-58
2022/07/15 00:27:57;;;;;;;60.67;50.10;;;25.60;51.60;;;;;;4989940;27;92345;-57
2022/07/15 00:30:27;;;;;;;60.40;50.05;;;25.50;51.60;;;;;;4997694;27;91520;-58
2022/07/15 00:32:53;;;;;;;60.35;50.15;;;25.50;51.60;;;;;;5000137;27;91945;-58
2022/07/15 00:35:19;;;;;;;60.20;50.15;;;25.50;51.70;;;;;;5000023;27;90375;-57
2022/07/15 00:37:44;;;;;;;60.35;50.25;;;25.50;51.70;;;;;;4999038;27;90589;-57
2022/07/15 00:40:11;;;;;;;60.00;50.08;;;25.50;51.70;;;;;;4993483;27;90067;-57
2022/07/15 00:42:46;;;;;;;60.35;50.08;;;25.50;51.90;;;;;;4978203;27;89946;-58
2022/07/15 00:45:20;;;;;;;60.10;50.13;;;25.40;51.80;;;;;;4999189;27;90068;-58
2022/07/15 00:47:51;;;;;;;61.17;50.08;;;25.40;51.80;;;;;;5003071;27;90677;-58
2022/07/15 00:50:18;;;;;;;59.80;50.15;;;25.40;51.90;;;;;;5002793;27;92660;-58
2022/07/15 00:52:50;;;;;;;60.13;50.03;;;25.40;52.00;;;;;;5000248;27;94382;-58
2022/07/15 00:55:15;;;;;;;;;;;25.40;52.00;;;;;;4997169;27;90980;-58
2022/07/15 00:57:43;;;;;;;60.03;49.80;;;25.40;52.00;;;;;;5005084;27;91458;-58
2022/07/15 01:00:10;;;;;;;60.45;50.05;;;25.30;52.10;;;;;;5013670;27;90665;-58
2022/07/15 01:02:38;;;;;;;59.92;50.00;;;25.30;52.20;;;;;;4993828;27;91623;-57
2022/07/15 01:05:05;;;;;;;60.38;50.08;;;25.30;52.30;;;;;;4994921;27;91600;-57
2022/07/15 01:07:33;;;;;;;60.97;50.20;;;25.30;52.30;;;;;;4995653;27;89992;-58
2022/07/15 01:09:59;;;;;;;60.33;50.05;;;25.30;52.30;;;;;;4996880;27;96018;-58
2022/07/15 01:12:26;;;;;;;60.85;50.15;;;25.30;52.30;;;;;;5002798;27;94012;-56
2022/07/15 01:14:52;;;;;;;60.53;50.20;;;25.30;52.40;;;;;;4990645;27;90470;-58
2022/07/15 01:17:19;;;;;;;59.78;50.25;;;25.30;52.40;;;;;;4980981;27;93238;-58
2022/07/15 01:19:44;;;;;;;61.28;50.20;;;25.30;52.40;;;;;;5002672;27;95633;-57
2022/07/15 01:22:10;;;;;;;59.92;50.10;;;25.20;52.40;;;;;;4986087;27;92524;-58
2022/07/15 01:24:36;;;;;;;59.63;49.85;;;25.20;52.60;;;;;;4994187;27;90292;-57
2022/07/15 01:27:02;;;;;;;60.67;50.05;;;25.20;52.50;;;;;;5001616;27;90670;-58
2022/07/15 01:29:28;;;;;;;59.53;50.05;;;25.20;52.50;;;;;;4989956;27;92105;-58
2022/07/15 01:31:54;;;;;;;60.42;49.70;;;25.20;52.60;;;;;;4998426;27;89944;-57
2022/07/15 01:34:20;;;;;;;59.58;49.90;;;25.20;52.70;;;;;;5009464;27;90821;-58
2022/07/15 01:36:47;;;;;;;60.33;50.08;;;25.20;52.70;;;;;;5006990;27;90302;-58
2022/07/15 01:39:12;;;;;;;59.80;49.72;;;25.20;52.70;;;;;;4994241;27;89950;-57
2022/07/15 01:41:38;;;;;;;59.97;49.83;;;25.20;52.70;;;;;;5002687;27;94806;-58
2022/07/15 01:44:04;;;;;;;61.58;50.17;;;25.10;52.70;;;;;;4994811;27;91200;-56
2022/07/15 01:46:30;;;;;;;60.78;50.25;;;25.20;52.80;;;;;;4999875;27;91744;-58
2022/07/15 01:51:40;;;;;;;59.70;49.90;;;25.10;52.90;;;;;;4996756;27;90434;-58
2022/07/15 01:54:05;;;;;;;60.65;49.95;;;25.10;52.90;;;;;;4998148;27;91194;-57
2022/07/15 01:56:31;;;;;;;60.63;50.10;;;25.10;52.90;;;;;;5003558;27;90300;-57
2022/07/15 01:58:57;;;;;;;60.00;50.08;;;25.10;53.00;;;;;;4984402;27;91636;-58
2022/07/15 02:01:22;;;;;;;60.38;50.05;;;25.10;53.00;;;;;;5000677;27;93266;-58
2022/07/15 02:03:48;;;;;;;59.95;50.05;;;25.00;52.90;;;;;;4992058;27;90748;-56
2022/07/15 02:06:14;;;;;;;59.55;49.95;;;25.10;53.00;;;;;;4995979;27;91723;-56
2022/07/15 02:08:39;;;;;;;60.45;50.15;;;25.00;53.10;;;;;;5002370;27;89767;-58
2022/07/15 02:11:07;;;;;;;60.20;49.90;;;25.00;53.00;;;;;;5000199;27;91617;-57
2022/07/15 02:13:33;;;;;;;59.85;49.95;;;25.00;53.00;;;;;;5005938;27;90066;-57
2022/07/15 02:15:59;;;;;;;59.90;49.85;;;25.00;53.10;;;;;;5003309;27;90074;-58
2022/07/15 02:18:24;;;;;;;59.83;49.78;;;25.00;53.10;;;;;;4997493;27;90709;-58
2022/07/15 02:20:50;;;;;;;60.13;49.92;;;25.00;53.20;;;;;;4997000;27;90870;-56
2022/07/15 02:23:16;;;;;;;59.50;49.88;;;25.00;53.20;;;;;;5000160;27;90774;-58
2022/07/15 02:25:42;;;;;;;60.58;49.92;;;25.00;53.20;;;;;;5008550;27;91164;-54
2022/07/15 02:28:08;;;;;;;59.20;49.75;;;24.90;53.30;;;;;;4985232;27;94153;-58
2022/07/15 02:30:40;;;;;;;60.47;49.85;;;24.90;53.30;;;;;;4988615;27;93591;-58
2022/07/15 02:33:06;;;;;;;59.65;50.13;;;24.90;53.40;;;;;;4998812;27;90910;-57
2022/07/15 02:35:32;;;;;;;59.97;49.95;;;24.90;53.30;;;;;;4984606;27;91423;-58
2022/07/15 02:37:59;;;;;;;60.67;49.90;;;24.90;53.40;;;;;;4992954;27;95725;-57
2022/07/15 02:40:26;;;;;;;59.60;49.90;;;24.90;53.40;;;;;;4998056;27;93853;-57
2022/07/15 02:42:56;;;;;;;59.65;49.95;;;24.90;53.40;;;;;;5001372;27;91389;-58
2022/07/15 02:45:23;;;;;;;59.90;50.05;;;24.90;53.40;;;;;;4994399;27;91075;-57
2022/07/15 02:47:49;;;;;;;60.30;49.85;;;24.90;53.40;;;;;;4993530;27;93071;-57
2022/07/15 02:50:15;;;;;;;59.80;50.00;;;24.90;53.50;;;;;;4993498;27;95199;-58
2022/07/15 02:52:42;;;;;;;59.63;49.65;;;24.90;53.60;;;;;;5001589;27;91508;-57
2022/07/15 02:55:08;;;;;;;59.35;49.65;;;24.80;53.50;;;;;;4993054;27;91842;-58
2022/07/15 02:57:34;;;;;;;59.47;49.72;;;24.90;53.60;;;;;;4990358;27;94650;-58
2022/07/15 03:00:00;;;;;;;61.25;49.97;;;24.80;53.50;;;;;;5007106;27;92164;-58
2022/07/15 03:02:27;;;;;;;60.25;49.95;;;24.90;53.60;;;;;;4999737;27;92436;-57
2022/07/15 03:04:53;;;;;;;59.72;49.85;;;24.80;53.60;;;;;;5002165;27;93346;-57
2022/07/15 03:07:18;;;;;;;59.67;49.90;;;24.80;53.60;;;;;;4990305;27;91696;-58
2022/07/15 03:09:44;;;;;;;59.75;49.95;;;24.80;53.60;;;;;;5002154;27;92143;-58
2022/07/15 03:12:10;;;;;;;59.33;49.72;;;24.80;53.70;;;;;;4996724;27;94601;-58
2022/07/15 03:14:35;;;;;;;59.65;49.92;;;24.80;53.70;;;;;;4983578;27;91487;-56
2022/07/15 03:17:01;;;;;;;59.85;49.63;;;24.70;53.70;;;;;;4994282;27;90475;-58
2022/07/15 03:19:27;;;;;;;60.72;49.63;;;24.70;53.70;;;;;;4992275;27;90262;-57
2022/07/15 03:21:52;;;;;;;59.58;49.85;;;24.70;53.80;;;;;;4994241;27;89873;-58
2022/07/15 03:24:18;;;;;;;59.70;50.15;;;24.70;53.70;;;;;;4988079;27;91893;-58
2022/07/15 03:26:44;;;;;;;59.85;50.03;;;24.70;53.90;;;;;;4996064;27;90733;-57
2022/07/15 03:29:10;;;;;;;59.42;50.03;;;24.70;54.00;;;;;;4998154;27;94414;-58
2022/07/15 03:31:36;;;;;;;59.72;50.00;;;24.70;54.00;;;;;;4992401;27;89922;-55
2022/07/15 03:34:01;;;;;;;58.92;49.65;;;24.60;54.10;;;;;;4993676;27;96173;-56
2022/07/15 03:36:27;;;;;;;60.95;49.75;;;24.60;54.10;;;;;;4999772;27;90150;-58
2022/07/15 03:38:53;;;;;;;59.45;49.92;;;24.60;54.10;;;;;;5000821;27;93842;-58
2022/07/15 03:41:19;;;;;;;60.40;49.83;;;24.60;54.10;;;;;;4992317;27;89973;-58
2022/07/15 03:43:45;;;;;;;60.30;49.90;;;24.60;54.10;;;;;;5003200;27;92481;-57
2022/07/15 03:46:13;;;;;;;59.13;49.60;;;24.60;54.20;;;;;;4994301;27;89988;-58
2022/07/15 03:48:39;;;;;;;58.78;49.53;;;24.60;54.30;;;;;;5006549;27;93555;-58
2022/07/15 03:51:04;;;;;;;59.45;49.95;;;24.50;54.30;;;;;;4998173;27;91208;-58
2022/07/15 03:53:30;;;;;;;60.20;49.95;;;24.50;54.20;;;;;;5006271;27;90550;-58
2022/07/15 03:55:56;;;;;;;59.13;49.65;;;24.60;54.30;;;;;;4989162;27;91288;-56
2022/07/15 03:58:22;;;;;;;60.03;50.05;;;24.50;54.20;;;;;;5000455;27;91411;-58
2022/07/15 04:00:47;;;;;;;59.25;49.67;;;24.50;54.30;;;;;;5005429;27;90004;-57
2022/07/15 04:03:13;;;;;;;58.80;49.53;;;24.60;54.40;;;;;;5007968;27;91749;-58
2022/07/15 04:05:39;;;;;;;59.20;49.60;;;24.50;54.30;;;;;;4991902;27;89446;-56
2022/07/15 04:08:05;;;;;;;59.00;49.83;;;24.50;54.40;;;;;;4986389;27;91248;-58
2022/07/15 04:10:31;;;;;;;59.28;49.75;;;24.50;54.30;;;;;;4999933;27;90392;-54
2022/07/15 04:12:57;;;;;;;58.85;49.83;;;24.50;54.40;;;;;;4991509;27;95849;-58
2022/07/15 04:15:23;;;;;;;59.25;49.72;;;24.50;54.40;;;;;;4989509;27;92807;-58
2022/07/15 04:17:48;;;;;;;60.03;49.95;;;24.50;54.40;;;;;;4999338;27;91201;-56
2022/07/15 04:20:14;;;;;;;59.58;49.60;;;24.50;54.40;;;;;;5012178;27;90058;-58
2022/07/15 04:22:41;;;;;;;59.08;49.65;;;24.50;54.40;;;;;;4995862;27;91151;-58
2022/07/15 04:25:09;;;;;;;59.55;49.72;;;24.50;54.40;;;;;;4995582;27;91071;-58
2022/07/15 04:27:35;;;;;;;60.88;49.72;;;24.50;54.50;;;;;;4995400;27;91249;-58
2022/07/15 04:30:01;;;;;;;59.10;49.85;;;24.50;54.50;;;;;;5000362;27;93196;-58
2022/07/15 04:32:26;;;;;;;59.00;49.75;;;24.50;54.50;;;;;;4993375;27;91081;-57
2022/07/15 04:34:52;;;;;;;59.25;49.80;;;24.50;54.60;;;;;;5006482;27;91277;-56
2022/07/15 04:37:18;;;;;;;60.65;50.03;;;24.50;54.60;;;;;;4992307;27;92918;-58
2022/07/15 04:39:47;;;;;;;58.83;49.55;;;24.40;54.50;;;;;;4996706;27;90528;-57
2022/07/15 04:42:12;;;;;;;58.60;49.65;;;24.50;54.50;;;;;;4994711;27;94682;-57
2022/07/15 04:44:38;;;;;;;59.20;49.95;;;24.50;54.50;;;;;;5004368;27;94474;-58
2022/07/15 04:47:04;;;;;;;59.92;49.55;;;24.40;54.50;;;;;;5010189;27;90641;-57
2022/07/15 04:52:14;;;;;;;59.00;49.70;;;24.50;54.60;;;;;;5009419;27;90676;-56
2022/07/15 04:54:40;;;;;;;59.75;49.85;;;24.40;54.70;;;;;;4998252;27;90987;-57
2022/07/15 04:57:05;;;;;;;59.17;49.83;;;24.40;54.70;;;;;;4985057;27;91552;-58
2022/07/15 04:59:32;;;;;;;60.00;49.97;;;24.40;54.80;;;;;;4999314;27;95321;-57
2022/07/15 05:01:58;;;;;;;58.97;49.83;;;24.40;55.00;;;;;;4997933;27;96214;-58
2022/07/15 05:04:24;;;;;;;60.33;49.72;;;24.40;54.90;;;;;;5001100;27;91309;-57
2022/07/15 05:06:50;;;;;;;59.30;49.80;;;24.30;54.90;;;;;;4997230;27;91612;-57
2022/07/15 05:09:16;;;;;;;59.10;49.72;;;24.30;55.00;;;;;;5001509;27;91897;-54
2022/07/15 05:11:41;;;;;;;58.92;49.85;;;24.30;54.90;;;;;;4985046;27;92837;-58
2022/07/15 05:14:07;;;;;;;59.70;50.00;;;24.30;55.00;;;;;;5002721;27;95232;-58
2022/07/15 05:16:33;;;;;;;59.00;49.75;;;24.40;55.00;;;;;;5001329;27;90405;-58
2022/07/15 05:18:58;;;;;;;59.00;50.03;;;24.30;55.10;;;;;;5002798;27;90345;-57
2022/07/15 05:21:24;;;;;;;59.55;49.50;;;24.30;55.20;;;;;;4997163;27;91374;-56
2022/07/15 05:23:50;;;;;;;59.65;49.63;;;24.30;55.30;;;;;;4994194;27;93121;-58
2022/07/15 05:26:15;;;;;;;59.03;49.63;;;24.40;55.30;;;;;;4966734;27;93986;-58
2022/07/15 05:28:41;;;;;;;61.40;49.75;;;24.50;55.10;;;;;;4977854;27;91054;-58
2022/07/15 05:31:07;;;;;;;58.92;49.63;;;24.50;55.10;;;;;;4982952;27;90229;-56
2022/07/15 05:33:33;;;;;;;58.92;49.83;;;24.50;54.90;;;;;;4997620;27;93074;-56
2022/07/15 05:35:58;;;;;;;58.97;49.75;;;24.60;54.90;;;;;;4999416;27;90899;-58
2022/07/15 05:38:24;;;;;;;58.88;49.72;;;24.60;54.80;;;;;;5007020;27;91565;-57
2022/07/15 05:40:50;;;;;;;59.65;49.75;;;24.60;54.70;;;;;;5003400;27;92582;-58
2022/07/15 05:43:16;;;;;;;59.05;49.67;;;24.70;54.80;;;;;;4991732;27;89882;-58
2022/07/15 05:45:42;;;;;;;59.92;49.97;;;24.70;54.70;;;;;;4995770;27;90176;-58
2022/07/15 05:48:08;;;;;;;60.17;50.03;;;24.70;55.20;;;;;;4998853;27;91476;-57
2022/07/15 05:50:34;;;;;;;60.42;50.05;;;24.70;54.60;;;;;;4991508;27;94535;-59
2022/07/15 05:52:59;;;;;;;59.97;50.10;;;24.70;54.50;;;;;;5007694;27;91295;-58
2022/07/15 05:55:25;;;;;;;59.53;49.95;;;24.70;54.70;;;;;;4989668;27;91501;-58
2022/07/15 05:57:51;;;;;;;59.15;49.92;;;24.70;54.40;;;;;;4998436;27;90598;-58
2022/07/15 06:00:16;;;;;;;60.80;50.00;;;24.80;54.40;;;;;;4995671;27;91028;-57
2022/07/15 06:02:42;;;;;;;59.75;50.05;;;24.80;54.30;;;;;;4974990;27;91068;-58
2022/07/15 06:05:09;;;;;;;59.72;49.88;;;24.80;54.30;;;;;;5007511;27;91534;-57
2022/07/15 06:07:35;;;;;;;60.00;50.03;;;24.80;54.30;;;;;;4997017;27;91714;-58
2022/07/15 06:10:02;;;;;;;59.80;50.00;;;24.80;54.20;;;;;;4986262;27;91880;-57
2022/07/15 06:12:28;;;;;;;60.10;50.15;;;24.80;54.10;;;;;;4991213;27;93197;-57
2022/07/15 06:14:53;;;;;;;60.40;50.40;;;24.80;54.00;;;;;;4990277;27;93031;-58
2022/07/15 06:17:19;;;;;;;60.25;50.05;;;24.80;53.90;;;;;;4999549;27;92256;-51
2022/07/15 06:19:45;;;;;;;68.70;53.35;;;24.80;54.50;;;;;;4977959;27;90446;-55
2022/07/15 06:22:10;;;;;;;66.63;53.05;;;24.30;51.10;;;;;;4997917;27;90415;-52
2022/07/15 06:24:36;;;;;;;66.95;52.78;;;23.90;52.00;;;;;;4987964;27;92265;-47
2022/07/15 06:27:02;;;;;;;69.30;52.30;;;23.60;53.40;;;;;;5000327;27;91484;-50
2022/07/15 06:29:27;;;;;;;67.22;52.65;;;23.30;53.80;;;;;;4987915;27;91688;-52
2022/07/15 06:31:53;;;;;;;65.82;51.67;;;23.20;54.20;;;;;;4998198;27;91784;-55
2022/07/15 06:34:19;;;;;;;68.03;52.53;;;22.90;55.60;;;;;;4992031;27;91678;-51
2022/07/15 06:36:44;;;;;;;68.50;51.97;;;23.00;55.10;;;;;;5001829;27;91233;-54
2022/07/15 06:39:11;;;;;;;65.93;51.55;;;22.80;55.40;;;;;;4998908;27;95102;-53
2022/07/15 06:41:36;;;;;;;63.60;51.20;;;23.00;55.50;;;;;;4986603;27;93343;-56
2022/07/15 06:44:05;;;;;;;62.78;51.15;;;23.10;54.90;;;;;;5008102;27;90883;-52
2022/07/15 06:46:31;;;;;;;62.75;50.67;;;23.10;55.30;;;;;;4993619;27;91454;-54
2022/07/15 06:48:56;;;;;;;63.53;50.63;;;23.10;54.10;;;;;;4995316;27;95876;-49
2022/07/15 06:51:22;;;;;;;64.75;50.65;;;23.10;53.50;;;;;;4995375;27;90503;-54
2022/07/15 06:53:48;;;;;;;62.92;50.67;;;23.00;53.80;;;;;;4997015;27;91618;-53
2022/07/15 06:56:14;;;;;;;65.20;50.80;;;23.10;53.70;;;;;;4999071;27;93632;-51
2022/07/15 06:58:39;;;;;;;63.88;50.78;;;23.30;53.10;;;;;;4994234;27;91119;-52
2022/07/15 07:01:06;;;;;;;62.97;49.92;;;23.20;53.20;;;;;;4985183;27;90600;-53
2022/07/15 07:03:31;;;;;;;60.78;50.08;;;23.20;53.30;;;;;;5000155;27;93035;-53
2022/07/15 07:05:57;;;;;;;62.75;50.35;;;23.20;52.60;;;;;;5000331;27;93721;-53
2022/07/15 07:08:23;;;;;;;62.42;49.95;;;23.20;52.60;;;;;;4993537;27;92409;-56
2022/07/15 07:10:49;;;;;;;62.30;50.15;;;23.20;51.90;;;;;;4987259;27;92572;-54
2022/07/15 07:13:15;;;;;;;66.70;50.55;;;23.30;52.50;;;;;;5000851;27;90535;-55
2022/07/15 07:15:40;;;;;;;61.53;50.08;;;23.40;52.70;;;;;;4991461;27;91567;-53
2022/07/15 07:18:06;;;;;;;64.55;50.38;;;23.30;51.20;;;;;;4990688;27;94647;-49
2022/07/15 07:20:32;;;;;;;63.20;50.03;;;23.10;51.50;;;;;;4994532;27;93115;-52
2022/07/15 07:22:57;;;;;;;60.88;49.72;;;23.20;51.00;;;;;;4997279;27;91201;-54
2022/07/15 07:25:24;;;;;;;64.20;50.33;;;23.20;51.10;;;;;;4992220;27;91773;-54
2022/07/15 07:27:50;;;;;;;62.50;49.70;;;23.30;51.20;;;;;;4997897;27;91366;-53
2022/07/15 07:30:15;;;;;;;82.43;51.53;;;23.30;52.00;;;;;;4997293;27;91174;-52
2022/07/15 07:32:41;;;;;;;79.75;51.38;;;23.30;52.00;;;;;;4982120;27;90522;-53
2022/07/15 07:35:08;;;;;;;66.28;49.95;;;23.40;52.10;;;;;;5000357;27;92225;-48
2022/07/15 07:37:35;;;;;;;63.75;50.20;;;23.40;50.80;;;;;;4985078;27;92603;-52
2022/07/15 07:40:00;;;;;;;60.88;50.00;;;23.30;50.60;;;;;;5000233;27;90608;-54
2022/07/15 07:42:26;;;;;;;65.72;50.60;;;23.30;50.50;;;;;;4999818;27;91851;-55
2022/07/15 07:44:51;;;;;;;73.38;51.55;;;23.40;50.60;;;;;;4996568;27;91945;-53
2022/07/15 07:47:17;;;;;;;62.92;50.33;;;23.30;50.90;;;;;;4998577;27;92663;-54
2022/07/15 07:49:44;;;;;;;64.57;50.47;;;23.30;50.70;;;;;;4984511;27;96962;-55
2022/07/15 07:52:09;;;;;;;62.92;50.33;;;23.40;50.80;;;;;;4988645;27;92314;-55
2022/07/15 07:54:35;;;;;;;63.15;50.42;;;23.40;50.30;;;;;;4959280;27;94495;-52
2022/07/15 07:57:01;;;;;;;66.55;50.90;;;23.50;50.80;;;;;;4998953;27;95761;-51
2022/07/15 07:59:27;;;;;;;62.20;50.50;;;23.40;50.80;;;;;;4976860;27;94955;-53
2022/07/15 08:01:52;;;;;;;62.15;50.30;;;23.50;50.50;;;;;;4991653;27;91641;-53
2022/07/15 08:04:18;;;;;;;63.20;50.42;;;23.50;50.00;;;;;;4978647;27;90485;-53
2022/07/15 08:06:44;;;;;;;66.55;51.15;;;23.40;50.20;;;;;;4984802;27;90963;-53
2022/07/15 08:09:09;;;;;;;65.93;51.15;;;23.50;51.00;;;;;;4977781;27;91444;-52
2022/07/15 08:11:35;;;;;;;62.47;50.13;;;23.60;50.70;;;;;;4996156;27;92033;-55
2022/07/15 08:14:01;;;;;;;60.97;50.17;;;23.70;49.90;;;;;;4986212;27;93102;-48
2022/07/15 08:16:27;;;;;;;62.40;50.35;;;23.60;49.50;;;;;;4995016;27;91068;-56
2022/07/15 08:18:53;;;;;;;66.63;50.30;;;23.50;49.70;;;;;;4982053;27;91274;-56
2022/07/15 08:21:18;;;;;;;60.45;50.05;;;23.60;49.30;;;;;;4964961;27;91475;-51
2022/07/15 08:23:44;;;;;;;60.28;49.95;;;23.50;48.80;;;;;;5005949;27;91717;-55
2022/07/15 08:26:11;;;;;;;65.13;50.22;;;23.50;49.70;;;;;;4993734;27;91241;-51
2022/07/15 08:28:36;;;;;;;61.65;50.00;;;23.40;49.90;;;;;;4996954;27;92752;-54
2022/07/15 08:31:02;;;;;;;59.25;49.75;;;23.40;49.70;;;;;;4994708;27;92900;-53
2022/07/15 08:33:28;;;;;;;61.97;49.72;;;23.50;48.50;;;;;;5005755;27;89715;-53
2022/07/15 08:35:55;;;;;;;60.97;49.92;;;23.40;47.60;;;;;;4988885;27;101101;-51
2022/07/15 08:38:20;;;;;;;62.47;49.83;;;23.40;48.00;;;;;;5002303;27;92279;-52
2022/07/15 08:40:46;;;;;;;61.25;49.95;;;23.30;49.20;;;;;;4990590;27;91788;-55
2022/07/15 08:43:12;;;;;;;62.00;49.97;;;23.40;47.50;;;;;;4999466;27;90625;-49
2022/07/15 08:45:42;;;;;;;64.72;49.95;;;23.50;49.10;;;;;;4984595;27;91191;-54
2022/07/15 08:48:08;;;;;;;60.40;50.05;;;23.60;48.50;;;;;;5006559;27;89757;-54
2022/07/15 08:50:36;;;;;;;59.67;49.55;;;23.50;47.30;;;;;;4998764;27;90622;-52
2022/07/15 08:53:02;;;;;;;60.78;49.92;;;23.50;48.70;;;;;;5012345;27;90591;-55
2022/07/15 08:55:29;;;;;;;60.67;49.83;;;23.50;48.80;;;;;;4988451;27;93109;-53
2022/07/15 08:57:55;;;;;;;61.45;50.13;;;23.50;48.80;;;;;;5011280;27;91460;-52
2022/07/15 09:00:28;;;;;;;63.95;50.15;;;23.60;48.70;;;;;;4982003;27;90398;-52
2022/07/15 09:02:57;;;;;;;61.67;49.83;;;23.70;48.10;;;;;;5004403;27;91696;-52
2022/07/15 09:05:33;;;;;;;62.22;49.90;;;23.70;48.30;;;;;;4979871;27;91940;-53
2022/07/15 09:08:14;;;;;;;60.05;49.92;;;23.80;47.90;;;;;;4974053;27;90868;-50
2022/07/15 09:10:57;;;;;;;59.67;49.83;;;23.80;46.70;;;;;;4998601;27;92897;-48
2022/07/15 09:13:31;;;;;;;60.47;49.92;;;23.70;47.20;;;;;;4990526;27;90559;-54
2022/07/15 09:16:05;;;;;;;62.13;50.05;;;23.80;47.30;;;;;;5012243;27;91738;-54
2022/07/15 09:18:36;;;;;;;59.80;49.78;;;23.80;47.40;;;;;;5005369;27;95897;-54
2022/07/15 09:21:09;;;;;;;60.13;49.90;;;23.80;47.80;;;;;;5009165;27;91143;-46
2022/07/15 09:23:35;;;;;;;60.97;50.22;;;23.90;47.50;;;;;;5002066;27;90141;-53
2022/07/15 09:26:20;;;;;;;62.38;50.22;;;24.00;46.60;;;;;;4994247;27;93182;-46
2022/07/15 09:28:46;;;;;;;60.40;50.13;;;24.00;47.30;;;;;;4994719;27;90664;-48
2022/07/15 09:34:02;;;;;;;60.97;50.15;;;24.00;46.40;;;;;;5010104;27;92019;-56
2022/07/15 09:36:32;;;;;;;61.15;50.25;;;24.00;46.00;;;;;;5009121;27;91140;-58
2022/07/15 09:39:00;;;;;;;61.60;49.67;;;24.00;46.50;;;;;;5005370;27;94864;-56
2022/07/15 09:41:31;;;;;;;61.33;49.92;;;23.90;45.40;;;;;;4997644;27;91298;-51
2022/07/15 09:43:58;;;;;;;63.35;49.90;;;23.90;45.90;;;;;;5001235;27;90296;-57
2022/07/15 09:46:28;;;;;;;60.60;50.05;;;24.00;45.60;;;;;;5004156;27;89873;-55
2022/07/15 09:48:54;;;;;;;60.53;49.85;;;24.00;45.00;;;;;;4995616;27;90201;-54
2022/07/15 09:51:21;;;;;;;60.67;49.92;;;23.90;45.60;;;;;;4997095;27;89765;-49
2022/07/15 09:53:47;;;;;;;60.85;50.15;;;24.00;45.60;;;;;;4994878;27;91077;-54
2022/07/15 09:56:21;;;;;;;61.30;50.08;;;24.10;45.20;;;;;;5016596;27;91165;-55
2022/07/15 09:58:47;;;;;;;61.13;50.22;;;24.00;45.90;;;;;;4987285;27;92649;-54
2022/07/15 10:01:12;;;;;;;61.72;50.15;;;24.10;46.00;;;;;;4991439;27;92347;-56
2022/07/15 10:03:39;;;;;;;61.00;49.95;;;24.00;45.40;;;;;;5011394;27;89970;-54
2022/07/15 10:06:06;;;;;;;60.67;49.97;;;24.00;45.40;;;;;;5005063;27;90099;-55
2022/07/15 10:08:34;;;;;;;64.13;50.35;;;24.00;44.80;;;;;;4993672;27;91022;-54
2022/07/15 10:11:00;;;;;;;61.10;49.97;;;24.00;44.80;;;;;;5002075;27;91068;-55
2022/07/15 10:14:07;;;;;;;62.38;50.20;;;23.90;44.90;;;;;;5013341;27;89845;-56
2022/07/15 10:16:51;;;;;;;61.58;49.90;;;24.00;44.70;;;;;;4937824;28;90390;-55
2022/07/15 10:19:53;;;;;;;60.65;50.03;;;24.00;44.50;;;;;;4998245;27;90420;-55
2022/07/15 10:22:40;;;;;;;61.97;50.33;;;24.00;44.00;;;;;;4999151;27;91117;-52
2022/07/15 10:25:33;;;;;;;61.80;50.17;;;24.10;44.20;;;;;;5003061;27;92066;-54
2022/07/15 10:28:05;;;;;;;63.10;50.13;;;24.10;46.20;;;;;;5009560;27;93298;-53
2022/07/15 10:30:31;;;;;;;60.50;50.08;;;24.30;44.50;;;;;;5005656;27;91717;-56
2022/07/15 10:33:18;;;;;;;66.05;50.22;;;24.10;43.30;;;;;;5008982;27;91848;-55
2022/07/15 10:35:48;;;;;;;65.75;50.78;;;24.00;44.00;;;;;;5005908;27;91684;-56
2022/07/15 10:38:19;;;;;;;61.85;50.30;;;24.00;44.70;;;;;;4985991;27;93598;-55
2022/07/15 10:41:09;;;;;;;61.42;50.20;;;24.10;43.90;;;;;;4994934;27;90067;-54
2022/07/15 10:43:49;;;;;;;78.05;50.95;;;24.20;44.50;;;;;;4998892;27;91102;-52
2022/07/15 10:46:24;;;;;;;68.97;51.03;;;24.20;45.30;;;;;;4997501;27;92721;-55
2022/07/15 10:48:49;;;;;;;64.47;50.55;;;24.30;44.30;;;;;;4968274;27;92588;-56
2022/07/15 10:51:37;;;;;;;64.05;50.60;;;24.30;43.80;;;;;;5012406;27;94044;-55
2022/07/15 10:54:25;;;;;;;61.05;50.45;;;24.40;43.70;;;;;;5004427;27;92519;-52
2022/07/15 10:56:51;;;;;;;63.05;50.67;;;24.40;43.40;;;;;;4986868;27;90970;-51
2022/07/15 10:59:21;;;;;;;61.45;50.50;;;24.50;44.30;;;;;;5008176;27;91353;-52
2022/07/15 11:02:00;;;;;;;63.78;50.72;;;24.60;43.10;;;;;;5007277;27;93458;-56
2022/07/15 11:04:28;;;;;;;66.70;50.95;;;24.50;44.10;;;;;;4995764;27;90696;-54
2022/07/15 11:07:11;;;;;;;62.58;50.78;;;24.70;44.20;;;;;;5003114;27;90031;-53
2022/07/15 11:09:53;;;;;;;62.72;52.45;;;24.70;43.80;;;;;;4994865;27;90965;-49
2022/07/15 11:12:30;;;;;;;64.13;50.95;;;24.70;42.50;;;;;;4989296;27;94176;-53
2022/07/15 11:14:58;;;;;;;63.03;51.13;;;24.60;41.80;;;;;;4994100;27;93772;-55
2022/07/15 11:17:33;;;;;;;62.67;50.88;;;24.50;42.30;;;;;;5000676;27;90807;-52
2022/07/15 11:20:01;;;;;;;64.00;50.83;;;24.50;42.30;;;;;;4997676;27;91211;-54
2022/07/15 11:22:28;;;;;;;61.55;50.75;;;24.50;43.20;;;;;;5005333;27;90306;-52
2022/07/15 11:24:55;;;;;;;63.03;50.72;;;24.60;43.00;;;;;;4988231;27;97454;-51
2022/07/15 11:27:22;;;;;;;70.13;50.72;;;24.60;42.90;;;;;;4989265;27;92521;-51
2022/07/15 11:29:55;;;;;;;63.50;50.80;;;24.50;42.10;;;;;;5015983;27;91413;-53
2022/07/15 11:32:22;;;;;;;62.05;50.75;;;24.60;41.60;;;;;;5002157;27;89891;-54
2022/07/15 11:34:52;;;;;;;62.28;50.85;;;24.50;42.20;;;;;;4994311;27;91011;-54
2022/07/15 11:37:23;;;;;;;62.57;50.57;;;24.50;42.10;;;;;;5001825;27;90076;-50
2022/07/15 11:40:04;;;;;;;63.75;50.78;;;24.40;42.20;;;;;;5009629;27;92197;-55
2022/07/15 11:45:35;;;;;;;62.75;50.65;;;24.40;42.60;;;;;;4993071;27;90402;-55
2022/07/15 11:48:01;;;;;;;65.15;50.92;;;24.50;42.90;;;;;;5018746;27;90438;-53
2022/07/15 11:50:27;;;;;;;62.20;50.95;;;24.50;44.90;;;;;;5003602;27;90248;-54
2022/07/15 11:52:58;;;;;;;62.30;51.03;;;24.50;43.00;;;;;;5000438;27;90350;-54
2022/07/15 11:55:23;;;;;;;61.55;50.80;;;24.50;42.90;;;;;;5001337;27;90005;-53
2022/07/15 11:57:51;;;;;;;62.10;50.85;;;24.50;42.90;;;;;;5008150;27;89518;-53
2022/07/15 12:00:19;;;;;;;62.35;50.90;;;24.60;45.00;;;;;;4982163;27;92900;-56
2022/07/15 12:02:44;;;;;;;62.08;50.65;;;24.70;42.80;;;;;;4993293;27;94139;-54
2022/07/15 12:05:10;;;;;;;65.40;51.05;;;24.60;42.50;;;;;;5001276;27;93465;-52
2022/07/15 12:07:47;;;;;;;64.18;51.05;;;24.70;43.10;;;;;;4996039;27;92875;-52
2022/07/15 12:10:14;;;;;;;61.97;50.72;;;24.80;43.60;;;;;;4986619;27;91599;-52
2022/07/15 12:12:54;;;;;;;61.60;50.83;;;24.80;43.40;;;;;;4997465;27;92877;-54
2022/07/15 12:15:20;;;;;;;64.43;50.88;;;24.90;42.80;;;;;;5001104;27;94369;-55
2022/07/15 12:17:47;;;;;;;64.18;51.30;;;24.80;42.00;;;;;;5018813;27;90056;-54
2022/07/15 12:20:13;;;;;;;63.10;50.97;;;24.80;42.00;;;;;;4999720;27;90483;-49
2022/07/15 12:23:10;;;;;;;66.57;51.28;;;24.80;43.00;;;;;;5003724;27;89750;-54
2022/07/15 12:25:36;;;;;;;61.45;50.60;;;24.90;42.80;;;;;;4995684;27;91450;-54
2022/07/15 12:28:02;;;;;;;63.05;50.97;;;24.90;39.80;;;;;;4992404;27;90329;-54
2022/07/15 12:30:34;;;;;;;64.13;51.15;;;24.90;42.30;;;;;;4983496;27;91227;-53
2022/07/15 12:33:20;;;;;;;62.30;51.25;;;25.00;41.40;;;;;;5004098;27;91635;-52
2022/07/15 12:35:46;;;;;;;64.20;51.10;;;25.00;40.00;;;;;;5001903;27;89619;-55
2022/07/15 12:38:38;;;;;;;64.85;51.05;;;24.90;41.10;;;;;;5003472;27;93302;-53
2022/07/15 12:41:05;;;;;;;62.80;51.35;;;25.10;42.80;;;;;;4989656;27;94083;-55
2022/07/15 12:43:48;;;;;;;63.78;51.00;;;25.00;40.40;;;;;;5003689;27;93551;-52